Palanca Luanda — V7ZC7 — position and weather

sailwx.info

Track history (hours):
 
Tides and Currents Weather Stations Pressure Air Temp Water Temp Dewpoint Dewpoint Depression Visibility Wind Speed Wind Dir Waves Ship Positions

Palanca Luanda

Last reported at 2017-Oct-15 22:34 UTC. Time now 2017-Oct-22 12:11 UTC.
Position N 38°46' W 073°51'.

Length 134 m; draft 5.7 m.

Type: Ship. MMSI: 538004791.

Date/timePositionNaut miles runAvg speedWind from/ knotsBaromVisibWave heightAir tempDewpointWater temp
2017-Oct-15 22:34N 38°46' W 073°51'410.5
2017-Oct-15 22:11N 38°46' W 073°56'410.9
2017-Oct-15 21:49N 38°46' W 074°01'810.3
2017-Oct-15 21:01N 38°46' W 074°12'110.4
2017-Oct-15 20:57N 38°46' W 074°13'1510.5
2017-Oct-15 19:29N 38°46' W 074°33'610.3
2017-Oct-15 18:55N 38°46' W 074°40'410.2
2017-Oct-15 18:30N 38°46' W 074°46'510.0
2017-Oct-15 17:59N 38°46' W 074°52'510.4
2017-Oct-15 17:29N 38°46' W 074°59'510.5
2017-Oct-15 16:59N 38°50' W 075°04'511.3
2017-Oct-15 16:30N 38°55' W 075°06'713.2
2017-Oct-15 16:01N 39°01' W 075°09'713.8
2017-Oct-15 15:31N 39°07' W 075°13'714.2
2017-Oct-15 15:00N 39°13' W 075°18'1413.6
2017-Oct-15 14:00N 39°23' W 075°29'612.3
2017-Oct-15 13:30N 39°28' W 075°34'510.6
2017-Oct-15 13:01N 39°34' W 075°33'510.6
2017-Oct-15 12:30N 39°33' W 075°40'510.6
2017-Oct-15 12:00N 39°32' W 075°47'3 6.2
2017-Oct-15 11:31N 39°32' W 075°51'4 7.5
2017-Oct-15 11:01N 39°30' W 075°55'510.4
2017-Oct-15 10:30N 39°26' W 075°60'612.9
2017-Oct-15 10:00N 39°23' W 076°07'713.2
2017-Oct-15 09:30N 39°18' W 076°13'611.9
2017-Oct-15 09:00N 39°13' W 076°15'611.2
2017-Oct-15 08:30N 39°09' W 076°21'611.9
2017-Oct-15 08:00N 39°11' W 076°28'4 8.8
2017-Oct-15 07:30N 39°13' W 076°33'2 2.2
2017-Oct-15 06:45N 39°13' W 076°35'0 0.0
2017-Oct-15 06:21N 39°13' W 076°35'0 0.0
2017-Oct-15 06:00N 39°13' W 076°35'0 0.0
2017-Oct-15 05:18N 39°13' W 076°35'0 0.0
2017-Oct-15 05:00N 39°13' W 076°35'0 0.0
2017-Oct-15 04:30N 39°13' W 076°35'0 0.0
2017-Oct-15 03:57N 39°13' W 076°35'0 0.0
2017-Oct-15 03:27N 39°13' W 076°35'0 0.0
2017-Oct-15 02:57N 39°13' W 076°35'0 0.0
2017-Oct-15 02:30N 39°13' W 076°35'0 0.0
2017-Oct-15 02:00N 39°13' W 076°35'0 0.0
2017-Oct-15 01:30N 39°13' W 076°35'0 0.0
2017-Oct-15 01:00N 39°13' W 076°35'0 0.0
2017-Oct-15 00:30N 39°13' W 076°35'0 0.0
2017-Oct-14 23:51N 39°13' W 076°35'0 0.0
2017-Oct-14 23:30N 39°13' W 076°35'0 0.0
2017-Oct-14 22:57N 39°13' W 076°35'0 0.0
2017-Oct-14 22:30N 39°13' W 076°35'0 0.0
2017-Oct-14 22:00N 39°13' W 076°35'0 0.0
2017-Oct-14 21:30N 39°13' W 076°35'0 0.0
2017-Oct-14 21:00N 39°13' W 076°35'0 0.0
2017-Oct-14 20:30N 39°13' W 076°35'0 0.0
2017-Oct-14 20:00N 39°13' W 076°35'0 0.0
2017-Oct-14 19:30N 39°13' W 076°35'0 0.0
2017-Oct-14 19:00N 39°13' W 076°35'0 0.0
2017-Oct-14 18:30N 39°13' W 076°35'0 0.0
2017-Oct-14 18:00N 39°13' W 076°35'0 0.0
2017-Oct-14 17:30N 39°13' W 076°35'0 0.0
2017-Oct-14 16:57N 39°13' W 076°35'0 0.0
2017-Oct-14 16:30N 39°13' W 076°35'0 0.0
2017-Oct-14 16:00N 39°13' W 076°35'0 0.0
2017-Oct-14 15:30N 39°13' W 076°35'0 0.0
2017-Oct-14 15:00N 39°13' W 076°35'0 0.0
2017-Oct-14 14:30N 39°13' W 076°35'0 0.0
2017-Oct-14 14:00N 39°13' W 076°35'0 0.0
2017-Oct-14 13:17N 39°13' W 076°35'0 0.3
2017-Oct-14 13:00N 39°13' W 076°35'1 1.8
2017-Oct-14 12:30N 39°13' W 076°34'4 7.1
2017-Oct-14 12:00N 39°12' W 076°30'510.9
2017-Oct-14 11:30N 39°10' W 076°23'5 9.4
2017-Oct-14 11:00N 39°11' W 076°17'510.8
2017-Oct-14 10:30N 39°16' W 076°14'611.4
2017-Oct-14 10:00N 39°21' W 076°11'611.8
2017-Oct-14 09:30N 39°24' W 076°04'611.0
2017-Oct-14 09:00N 39°27' W 075°59'5 9.1
2017-Oct-14 08:30N 39°30' W 075°55'4 7.1
2017-Oct-14 08:00N 39°32' W 075°50'2 4.7
2017-Oct-14 07:30N 39°32' W 075°47'4 7.6
2017-Oct-14 07:00N 39°33' W 075°43'4 7.3
2017-Oct-14 06:30N 39°33' W 075°38'4 7.6
2017-Oct-14 06:01N 39°34' W 075°33'4 8.7
2017-Oct-14 05:30N 39°29' W 075°34'5 9.2
2017-Oct-14 05:00N 39°25' W 075°31'5 9.8
2017-Oct-14 04:30N 39°22' W 075°27'5 9.7
2017-Oct-14 04:00N 39°18' W 075°23'510.2
2017-Oct-14 03:30N 39°14' W 075°18'1010.4
2017-Oct-14 02:31N 39°05' W 075°11'010.7
2017-Oct-14 02:30N 39°05' W 075°11'510.7
2017-Oct-14 02:00N 39°00' W 075°09'14 9.1
2017-Oct-14 00:26N 38°47' W 075°01'  
2017-Oct-08 09:12N 38°47' W 073°35'312.1
2017-Oct-08 08:59N 38°47' W 073°39'712.1
2017-Oct-08 08:26N 38°46' W 073°47'612.3
2017-Oct-08 07:58N 38°46' W 073°54'612.2
2017-Oct-08 07:30N 38°46' W 074°02'612.1
2017-Oct-08 07:00N 38°46' W 074°09'612.1
2017-Oct-08 06:30N 38°46' W 074°17'712.7
2017-Oct-08 05:55N 38°46' W 074°27'613.0
2017-Oct-08 05:28N 38°45' W 074°34'612.9
2017-Oct-08 05:00N 38°46' W 074°42'713.0
2017-Oct-08 04:29N 38°46' W 074°51'612.7
2017-Oct-08 04:00N 38°46' W 074°58'611.1
2017-Oct-08 03:30N 38°50' W 075°04'5 9.5
2017-Oct-08 02:55N 38°55' W 075°06'511.1
2017-Oct-08 02:30N 38°59' W 075°08'611.0
2017-Oct-08 02:00N 39°04' W 075°11'510.8
2017-Oct-08 01:30N 39°09' W 075°14'510.6
2017-Oct-08 01:00N 39°13' W 075°18'611.6
2017-Oct-08 00:30N 39°18' W 075°23'612.7
2017-Oct-08 00:00N 39°22' W 075°28'713.8
2017-Oct-07 23:31N 39°28' W 075°34'611.7
2017-Oct-07 23:01N 39°34' W 075°34'510.6
2017-Oct-07 22:30N 39°33' W 075°41'510.1
2017-Oct-07 22:00N 39°32' W 075°47'3 5.9
2017-Oct-07 21:31N 39°32' W 075°51'4 7.5
2017-Oct-07 21:00N 39°30' W 075°55'510.4
2017-Oct-07 20:30N 39°26' W 076°00'611.5
2017-Oct-07 20:00N 39°23' W 076°06'611.5
2017-Oct-07 19:30N 39°20' W 076°12'511.1
2017-Oct-07 19:01N 39°14' W 076°14'611.5
2017-Oct-07 18:30N 39°10' W 076°19'510.0
2017-Oct-07 18:00N 39°10' W 076°25'510.8
2017-Oct-07 17:30N 39°13' W 076°31'3 5.2
2017-Oct-07 17:00N 39°13' W 076°35'0 0.2
2017-Oct-07 15:29N 39°13' W 076°35'0 0.0
2017-Oct-07 14:53N 39°13' W 076°35'0 0.0
2017-Oct-07 14:29N 39°13' W 076°35'0 0.0
2017-Oct-07 13:56N 39°13' W 076°35'0 0.0
2017-Oct-07 13:23N 39°13' W 076°35'0 0.0
2017-Oct-07 12:59N 39°13' W 076°35'0 0.0
2017-Oct-07 12:29N 39°13' W 076°35'0 0.0
2017-Oct-07 11:59N 39°13' W 076°35'0 0.0
2017-Oct-07 11:26N 39°13' W 076°35'0 0.0
2017-Oct-07 10:56N 39°13' W 076°35'0 0.0
2017-Oct-07 10:26N 39°13' W 076°35'0 0.0
2017-Oct-07 09:56N 39°13' W 076°35'0 0.0
2017-Oct-07 09:20N 39°13' W 076°35'0 0.0
2017-Oct-07 08:53N 39°13' W 076°35'0 0.0
2017-Oct-07 08:29N 39°13' W 076°35'0 0.0
2017-Oct-07 07:59N 39°13' W 076°35'0 0.0
2017-Oct-07 07:26N 39°13' W 076°35'0 0.0
2017-Oct-07 06:59N 39°13' W 076°35'0 0.0
2017-Oct-07 06:29N 39°13' W 076°35'0 0.0
2017-Oct-07 05:56N 39°13' W 076°35'0 0.0
2017-Oct-07 05:29N 39°13' W 076°35'0 0.0
2017-Oct-07 04:56N 39°13' W 076°35'0 0.0
2017-Oct-07 04:23N 39°13' W 076°35'0 0.0
2017-Oct-07 03:56N 39°13' W 076°35'0 0.0
2017-Oct-07 03:26N 39°13' W 076°35'0 0.0
2017-Oct-07 03:00N 39°13' W 076°35'1 1.3
2017-Oct-07 02:31N 39°13' W 076°34'2 4.7
2017-Oct-07 02:01N 39°13' W 076°31'5 9.5
2017-Oct-07 01:31N 39°11' W 076°26'612.0
2017-Oct-07 01:00N 39°05' W 076°24'612.1
2017-Oct-07 00:31N 38°59' W 076°23'612.7
2017-Oct-07 00:00N 38°53' W 076°24'612.7
2017-Oct-06 23:31N 38°46' W 076°26'712.5
2017-Oct-06 22:55N 38°39' W 076°25'612.5
2017-Oct-06 22:28N 38°33' W 076°26'1612.9
2017-Oct-06 21:14N 38°19' W 076°18'312.9
2017-Oct-06 20:59N 38°16' W 076°16'612.8
2017-Oct-06 20:31N 38°10' W 076°14'712.4
2017-Oct-06 19:58N 38°03' W 076°13'612.4
2017-Oct-06 19:27N 37°57' W 076°10'812.3
2017-Oct-06 18:48N 37°49' W 076°10'512.6
2017-Oct-06 18:26N 37°45' W 076°11'1012.1
2017-Oct-06 17:34N 37°36' W 076°04'212.5
2017-Oct-06 17:23N 37°34' W 076°03'912.6
2017-Oct-06 16:41N 37°25' W 076°05'1912.5
2017-Oct-06 15:09N 37°06' W 076°07'313.4
2017-Oct-06 14:54N 37°03' W 076°05'513.2
2017-Oct-06 14:30N 36°59' W 076°01'510.7
2017-Oct-06 14:00N 36°56' W 075°56'510.8
2017-Oct-06 13:30N 36°52' W 075°51'510.4
2017-Oct-06 13:00N 36°49' W 075°45'5 9.4
2017-Oct-06 12:30N 36°46' W 075°41'5 9.7
2017-Oct-06 11:59N 36°42' W 075°37'510.4
2017-Oct-06 11:30N 36°38' W 075°34'510.7
2017-Oct-06 11:00N 36°34' W 075°30'510.9
2017-Oct-06 10:30N 36°29' W 075°25'611.4
2017-Oct-06 10:00N 36°25' W 075°21'812.3
2017-Oct-06 09:20N 36°18' W 075°15'412.5
2017-Oct-06 09:00N 36°15' W 075°12'  
Track history (hours):
 
Tides and Currents Weather Stations Pressure Air Temp Water Temp Dewpoint Dewpoint Depression Visibility Wind Speed Wind Dir Waves Ship Positions

Palanca Luanda

Last reported at 2017-Oct-15 22:34 UTC. Time now 2017-Oct-22 12:11 UTC.
Position N 38°46' W 073°51'.

Length 134 m; draft 5.7 m.

Type: Ship. MMSI: 538004791.

Date/timePositionNaut miles runAvg speedWind from/ knotsBaromVisibWave heightAir tempDewpointWater temp
2017-Oct-15 22:34N 38°46' W 073°51'410.5
2017-Oct-15 22:11N 38°46' W 073°56'410.9
2017-Oct-15 21:49N 38°46' W 074°01'810.3
2017-Oct-15 21:01N 38°46' W 074°12'110.4
2017-Oct-15 20:57N 38°46' W 074°13'1510.5
2017-Oct-15 19:29N 38°46' W 074°33'610.3
2017-Oct-15 18:55N 38°46' W 074°40'410.2
2017-Oct-15 18:30N 38°46' W 074°46'510.0
2017-Oct-15 17:59N 38°46' W 074°52'510.4
2017-Oct-15 17:29N 38°46' W 074°59'510.5
2017-Oct-15 16:59N 38°50' W 075°04'511.3
2017-Oct-15 16:30N 38°55' W 075°06'713.2
2017-Oct-15 16:01N 39°01' W 075°09'713.8
2017-Oct-15 15:31N 39°07' W 075°13'714.2
2017-Oct-15 15:00N 39°13' W 075°18'1413.6
2017-Oct-15 14:00N 39°23' W 075°29'612.3
2017-Oct-15 13:30N 39°28' W 075°34'510.6
2017-Oct-15 13:01N 39°34' W 075°33'510.6
2017-Oct-15 12:30N 39°33' W 075°40'510.6
2017-Oct-15 12:00N 39°32' W 075°47'3 6.2
2017-Oct-15 11:31N 39°32' W 075°51'4 7.5
2017-Oct-15 11:01N 39°30' W 075°55'510.4
2017-Oct-15 10:30N 39°26' W 075°60'612.9
2017-Oct-15 10:00N 39°23' W 076°07'713.2
2017-Oct-15 09:30N 39°18' W 076°13'611.9
2017-Oct-15 09:00N 39°13' W 076°15'611.2
2017-Oct-15 08:30N 39°09' W 076°21'611.9
2017-Oct-15 08:00N 39°11' W 076°28'4 8.8
2017-Oct-15 07:30N 39°13' W 076°33'2 2.2
2017-Oct-15 06:45N 39°13' W 076°35'0 0.0
2017-Oct-15 06:21N 39°13' W 076°35'0 0.0
2017-Oct-15 06:00N 39°13' W 076°35'0 0.0
2017-Oct-15 05:18N 39°13' W 076°35'0 0.0
2017-Oct-15 05:00N 39°13' W 076°35'0 0.0
2017-Oct-15 04:30N 39°13' W 076°35'0 0.0
2017-Oct-15 03:57N 39°13' W 076°35'0 0.0
2017-Oct-15 03:27N 39°13' W 076°35'0 0.0
2017-Oct-15 02:57N 39°13' W 076°35'0 0.0
2017-Oct-15 02:30N 39°13' W 076°35'0 0.0
2017-Oct-15 02:00N 39°13' W 076°35'0 0.0
2017-Oct-15 01:30N 39°13' W 076°35'0 0.0
2017-Oct-15 01:00N 39°13' W 076°35'0 0.0
2017-Oct-15 00:30N 39°13' W 076°35'0 0.0
2017-Oct-14 23:51N 39°13' W 076°35'0 0.0
2017-Oct-14 23:30N 39°13' W 076°35'0 0.0
2017-Oct-14 22:57N 39°13' W 076°35'0 0.0
2017-Oct-14 22:30N 39°13' W 076°35'0 0.0
2017-Oct-14 22:00N 39°13' W 076°35'0 0.0
2017-Oct-14 21:30N 39°13' W 076°35'0 0.0
2017-Oct-14 21:00N 39°13' W 076°35'0 0.0
2017-Oct-14 20:30N 39°13' W 076°35'0 0.0
2017-Oct-14 20:00N 39°13' W 076°35'0 0.0
2017-Oct-14 19:30N 39°13' W 076°35'0 0.0
2017-Oct-14 19:00N 39°13' W 076°35'0 0.0
2017-Oct-14 18:30N 39°13' W 076°35'0 0.0
2017-Oct-14 18:00N 39°13' W 076°35'0 0.0
2017-Oct-14 17:30N 39°13' W 076°35'0 0.0
2017-Oct-14 16:57N 39°13' W 076°35'0 0.0
2017-Oct-14 16:30N 39°13' W 076°35'0 0.0
2017-Oct-14 16:00N 39°13' W 076°35'0 0.0
2017-Oct-14 15:30N 39°13' W 076°35'0 0.0
2017-Oct-14 15:00N 39°13' W 076°35'0 0.0
2017-Oct-14 14:30N 39°13' W 076°35'0 0.0
2017-Oct-14 14:00N 39°13' W 076°35'0 0.0
2017-Oct-14 13:17N 39°13' W 076°35'0 0.3
2017-Oct-14 13:00N 39°13' W 076°35'1 1.8
2017-Oct-14 12:30N 39°13' W 076°34'4 7.1
2017-Oct-14 12:00N 39°12' W 076°30'510.9
2017-Oct-14 11:30N 39°10' W 076°23'5 9.4
2017-Oct-14 11:00N 39°11' W 076°17'510.8
2017-Oct-14 10:30N 39°16' W 076°14'611.4
2017-Oct-14 10:00N 39°21' W 076°11'611.8
2017-Oct-14 09:30N 39°24' W 076°04'611.0
2017-Oct-14 09:00N 39°27' W 075°59'5 9.1
2017-Oct-14 08:30N 39°30' W 075°55'4 7.1
2017-Oct-14 08:00N 39°32' W 075°50'2 4.7
2017-Oct-14 07:30N 39°32' W 075°47'4 7.6
2017-Oct-14 07:00N 39°33' W 075°43'4 7.3
2017-Oct-14 06:30N 39°33' W 075°38'4 7.6
2017-Oct-14 06:01N 39°34' W 075°33'4 8.7
2017-Oct-14 05:30N 39°29' W 075°34'5 9.2
2017-Oct-14 05:00N 39°25' W 075°31'5 9.8
2017-Oct-14 04:30N 39°22' W 075°27'5 9.7
2017-Oct-14 04:00N 39°18' W 075°23'510.2
2017-Oct-14 03:30N 39°14' W 075°18'1010.4
2017-Oct-14 02:31N 39°05' W 075°11'010.7
2017-Oct-14 02:30N 39°05' W 075°11'510.7
2017-Oct-14 02:00N 39°00' W 075°09'14 9.1
2017-Oct-14 00:26N 38°47' W 075°01'  
2017-Oct-08 09:12N 38°47' W 073°35'312.1
2017-Oct-08 08:59N 38°47' W 073°39'712.1
2017-Oct-08 08:26N 38°46' W 073°47'612.3
2017-Oct-08 07:58N 38°46' W 073°54'612.2
2017-Oct-08 07:30N 38°46' W 074°02'612.1
2017-Oct-08 07:00N 38°46' W 074°09'612.1
2017-Oct-08 06:30N 38°46' W 074°17'712.7
2017-Oct-08 05:55N 38°46' W 074°27'613.0
2017-Oct-08 05:28N 38°45' W 074°34'612.9
2017-Oct-08 05:00N 38°46' W 074°42'713.0
2017-Oct-08 04:29N 38°46' W 074°51'612.7
2017-Oct-08 04:00N 38°46' W 074°58'611.1
2017-Oct-08 03:30N 38°50' W 075°04'5 9.5
2017-Oct-08 02:55N 38°55' W 075°06'511.1
2017-Oct-08 02:30N 38°59' W 075°08'611.0
2017-Oct-08 02:00N 39°04' W 075°11'510.8
2017-Oct-08 01:30N 39°09' W 075°14'510.6
2017-Oct-08 01:00N 39°13' W 075°18'611.6
2017-Oct-08 00:30N 39°18' W 075°23'612.7
2017-Oct-08 00:00N 39°22' W 075°28'713.8
2017-Oct-07 23:31N 39°28' W 075°34'611.7
2017-Oct-07 23:01N 39°34' W 075°34'510.6
2017-Oct-07 22:30N 39°33' W 075°41'510.1
2017-Oct-07 22:00N 39°32' W 075°47'3 5.9
2017-Oct-07 21:31N 39°32' W 075°51'4 7.5
2017-Oct-07 21:00N 39°30' W 075°55'510.4
2017-Oct-07 20:30N 39°26' W 076°00'611.5
2017-Oct-07 20:00N 39°23' W 076°06'611.5
2017-Oct-07 19:30N 39°20' W 076°12'511.1
2017-Oct-07 19:01N 39°14' W 076°14'611.5
2017-Oct-07 18:30N 39°10' W 076°19'510.0
2017-Oct-07 18:00N 39°10' W 076°25'510.8
2017-Oct-07 17:30N 39°13' W 076°31'3 5.2
2017-Oct-07 17:00N 39°13' W 076°35'0 0.2
2017-Oct-07 15:29N 39°13' W 076°35'0 0.0
2017-Oct-07 14:53N 39°13' W 076°35'0 0.0
2017-Oct-07 14:29N 39°13' W 076°35'0 0.0
2017-Oct-07 13:56N 39°13' W 076°35'0 0.0
2017-Oct-07 13:23N 39°13' W 076°35'0 0.0
2017-Oct-07 12:59N 39°13' W 076°35'0 0.0
2017-Oct-07 12:29N 39°13' W 076°35'0 0.0
2017-Oct-07 11:59N 39°13' W 076°35'0 0.0
2017-Oct-07 11:26N 39°13' W 076°35'0 0.0
2017-Oct-07 10:56N 39°13' W 076°35'0 0.0
2017-Oct-07 10:26N 39°13' W 076°35'0 0.0
2017-Oct-07 09:56N 39°13' W 076°35'0 0.0
2017-Oct-07 09:20N 39°13' W 076°35'0 0.0
2017-Oct-07 08:53N 39°13' W 076°35'0 0.0
2017-Oct-07 08:29N 39°13' W 076°35'0 0.0
2017-Oct-07 07:59N 39°13' W 076°35'0 0.0
2017-Oct-07 07:26N 39°13' W 076°35'0 0.0
2017-Oct-07 06:59N 39°13' W 076°35'0 0.0
2017-Oct-07 06:29N 39°13' W 076°35'0 0.0
2017-Oct-07 05:56N 39°13' W 076°35'0 0.0
2017-Oct-07 05:29N 39°13' W 076°35'0 0.0
2017-Oct-07 04:56N 39°13' W 076°35'0 0.0
2017-Oct-07 04:23N 39°13' W 076°35'0 0.0
2017-Oct-07 03:56N 39°13' W 076°35'0 0.0
2017-Oct-07 03:26N 39°13' W 076°35'0 0.0
2017-Oct-07 03:00N 39°13' W 076°35'1 1.3
2017-Oct-07 02:31N 39°13' W 076°34'2 4.7
2017-Oct-07 02:01N 39°13' W 076°31'5 9.5
2017-Oct-07 01:31N 39°11' W 076°26'612.0
2017-Oct-07 01:00N 39°05' W 076°24'612.1
2017-Oct-07 00:31N 38°59' W 076°23'612.7
2017-Oct-07 00:00N 38°53' W 076°24'612.7
2017-Oct-06 23:31N 38°46' W 076°26'712.5
2017-Oct-06 22:55N 38°39' W 076°25'612.5
2017-Oct-06 22:28N 38°33' W 076°26'1612.9
2017-Oct-06 21:14N 38°19' W 076°18'312.9
2017-Oct-06 20:59N 38°16' W 076°16'612.8
2017-Oct-06 20:31N 38°10' W 076°14'712.4
2017-Oct-06 19:58N 38°03' W 076°13'612.4
2017-Oct-06 19:27N 37°57' W 076°10'812.3
2017-Oct-06 18:48N 37°49' W 076°10'512.6
2017-Oct-06 18:26N 37°45' W 076°11'1012.1
2017-Oct-06 17:34N 37°36' W 076°04'212.5
2017-Oct-06 17:23N 37°34' W 076°03'912.6
2017-Oct-06 16:41N 37°25' W 076°05'1912.5
2017-Oct-06 15:09N 37°06' W 076°07'313.4
2017-Oct-06 14:54N 37°03' W 076°05'513.2
2017-Oct-06 14:30N 36°59' W 076°01'510.7
2017-Oct-06 14:00N 36°56' W 075°56'510.8
2017-Oct-06 13:30N 36°52' W 075°51'510.4
2017-Oct-06 13:00N 36°49' W 075°45'5 9.4
2017-Oct-06 12:30N 36°46' W 075°41'5 9.7
2017-Oct-06 11:59N 36°42' W 075°37'510.4
2017-Oct-06 11:30N 36°38' W 075°34'510.7
2017-Oct-06 11:00N 36°34' W 075°30'510.9
2017-Oct-06 10:30N 36°29' W 075°25'611.4
2017-Oct-06 10:00N 36°25' W 075°21'812.3
2017-Oct-06 09:20N 36°18' W 075°15'412.5
2017-Oct-06 09:00N 36°15' W 075°12'  

Dump ship's entire track history